createdAt,value
2022-11-11T00:01:40.042Z,84.57
2022-11-11T00:04:08.810Z,84.28
2022-11-11T00:06:36.148Z,84.38
2022-11-11T00:09:04.073Z,84.57
2022-11-11T00:11:31.474Z,84.49
2022-11-11T00:13:58.915Z,84.21
2022-11-11T00:16:46.327Z,82.84
2022-11-11T00:19:32.924Z,84.87
2022-11-11T00:22:17.620Z,84.75
2022-11-11T00:25:02.481Z,84.56
2022-11-11T00:27:29.918Z,84.16
2022-11-11T00:29:57.364Z,83.54
2022-11-11T00:32:27.071Z,83.11
2022-11-11T00:35:15.161Z,83.58
2022-11-11T00:37:44.456Z,84.79
2022-11-11T00:40:13.550Z,84.58
2022-11-11T00:42:41.411Z,83.46
2022-11-11T00:45:10.856Z,82.56
2022-11-11T00:47:55.796Z,83.93
2022-11-11T00:50:46.733Z,83.59
2022-11-11T00:53:15.775Z,83.37
2022-11-11T00:55:43.348Z,83.30
2022-11-11T00:58:11.091Z,85.20
2022-11-11T01:00:38.569Z,83.76
2022-11-11T01:03:06.361Z,82.36
2022-11-11T01:05:35.146Z,82.46
2022-11-11T01:08:02.527Z,83.22
2022-11-11T01:10:39.560Z,82.98
2022-11-11T01:13:14.076Z,84.42
2022-11-11T01:15:43.049Z,84.11
2022-11-11T01:18:11.859Z,82.46
2022-11-11T01:20:41.630Z,82.73
2022-11-11T01:23:11.580Z,82.73
2022-11-11T01:25:41.386Z,82.73
2022-11-11T01:28:09.911Z,82.46
2022-11-11T01:30:38.839Z,82.40
2022-11-11T01:33:06.335Z,84.58
2022-11-11T01:35:33.981Z,85.36
2022-11-11T01:38:02.887Z,84.28
2022-11-11T01:40:31.488Z,83.43
2022-11-11T01:43:19.207Z,84.14
2022-11-11T01:45:54.532Z,84.55
2022-11-11T01:48:46.272Z,83.55
2022-11-11T01:51:20.391Z,82.63
2022-11-11T01:54:03.801Z,84.46
2022-11-11T01:56:32.025Z,83.36
2022-11-11T01:59:04.203Z,82.94
2022-11-11T02:01:31.919Z,84.42
2022-11-11T02:04:23.121Z,82.60
2022-11-11T02:06:54.405Z,84.28
2022-11-11T02:09:25.324Z,83.97
2022-11-11T02:12:12.601Z,83.87
2022-11-11T02:14:43.159Z,83.00
2022-11-11T02:17:14.376Z,85.09
2022-11-11T02:19:49.565Z,83.68
2022-11-11T02:22:24.399Z,84.76
2022-11-11T02:24:55.228Z,83.54
2022-11-11T02:27:25.609Z,84.31
2022-11-11T02:29:56.708Z,84.71
2022-11-11T02:32:24.564Z,83.77
2022-11-11T02:34:52.270Z,84.32
2022-11-11T02:37:25.735Z,83.33
2022-11-11T02:40:05.406Z,82.45
2022-11-11T02:42:36.622Z,82.77
2022-11-11T02:45:04.696Z,83.10
2022-11-11T02:47:32.331Z,83.68
2022-11-11T02:49:59.874Z,83.75
2022-11-11T02:52:27.527Z,83.72
2022-11-11T02:54:56.476Z,83.48
2022-11-11T02:57:24.279Z,83.62
2022-11-11T02:59:51.815Z,82.93
2022-11-11T03:02:19.298Z,83.01
2022-11-11T03:04:46.830Z,83.13
2022-11-11T03:07:14.421Z,83.25
2022-11-11T03:09:41.935Z,82.82
2022-11-11T03:12:10.910Z,82.51
2022-11-11T03:14:38.579Z,83.16
2022-11-11T03:17:23.832Z,82.37
2022-11-11T03:19:51.772Z,83.10
2022-11-11T03:25:23.683Z,82.42
2022-11-11T03:27:52.443Z,82.98
2022-11-11T03:30:19.923Z,82.73
2022-11-11T03:32:47.348Z,83.37
2022-11-11T03:35:14.775Z,84.27
2022-11-11T03:37:59.982Z,82.62
2022-11-11T03:40:29.168Z,82.45
2022-11-11T03:43:03.848Z,82.72
2022-11-11T03:45:31.970Z,82.53
2022-11-11T03:47:59.524Z,83.79
2022-11-11T03:50:27.013Z,83.96
2022-11-11T03:52:54.459Z,83.68
2022-11-11T03:55:21.897Z,84.42
2022-11-11T03:57:49.368Z,83.22
2022-11-11T04:00:21.398Z,83.77
2022-11-11T04:03:06.659Z,82.70
2022-11-11T04:05:51.804Z,82.57
2022-11-11T04:08:38.219Z,82.70
2022-11-11T04:11:09.971Z,82.15
2022-11-11T04:13:55.193Z,83.08
2022-11-11T04:16:23.998Z,82.96
2022-11-11T04:19:09.182Z,82.58
2022-11-11T04:21:45.883Z,82.40
2022-11-11T04:24:32.847Z,85.48
2022-11-11T04:27:01.762Z,82.72
2022-11-11T04:29:28.986Z,84.31
2022-11-11T04:32:17.754Z,82.07
2022-11-11T04:34:47.131Z,82.62
2022-11-11T04:37:15.632Z,84.44
2022-11-11T04:40:00.950Z,82.86
2022-11-11T04:42:29.480Z,82.65
2022-11-11T04:45:14.928Z,83.05
2022-11-11T04:47:55.958Z,83.55
2022-11-11T04:50:23.994Z,82.71
2022-11-11T04:52:53.283Z,82.34
2022-11-11T04:55:38.412Z,81.79
2022-11-11T04:58:05.887Z,81.54
2022-11-11T05:00:33.377Z,82.76
2022-11-11T05:03:18.268Z,82.31
2022-11-11T05:06:04.596Z,81.73
2022-11-11T05:08:49.923Z,82.84
2022-11-11T05:11:18.394Z,82.57
2022-11-11T05:14:03.265Z,83.28
2022-11-11T05:16:51.494Z,82.71
2022-11-11T05:19:38.024Z,82.90
2022-11-11T05:22:12.576Z,82.62
2022-11-11T05:24:57.535Z,82.87
2022-11-11T05:27:25.200Z,82.37
2022-11-11T05:29:52.615Z,82.14
2022-11-11T05:32:21.813Z,82.39
2022-11-11T05:34:50.879Z,83.58
2022-11-11T05:37:18.608Z,83.56
2022-11-11T05:39:46.675Z,83.10
2022-11-11T05:42:14.298Z,83.30
2022-11-11T05:44:41.831Z,83.62
2022-11-11T05:47:09.506Z,83.42
2022-11-11T05:49:36.976Z,83.55
2022-11-11T05:52:07.179Z,83.34
2022-11-11T05:54:34.658Z,82.75
2022-11-11T05:57:02.193Z,83.54
2022-11-11T05:59:29.622Z,82.77
2022-11-11T06:01:57.167Z,83.17
2022-11-11T06:04:24.650Z,83.63
2022-11-11T06:06:52.094Z,83.40
2022-11-11T06:09:20.895Z,83.08
2022-11-11T06:11:48.628Z,84.23
2022-11-11T06:14:16.070Z,83.22
2022-11-11T06:16:43.494Z,83.49
2022-11-11T06:19:10.936Z,83.16
2022-11-11T06:21:52.311Z,83.20
2022-11-11T06:24:25.263Z,84.96
2022-11-11T06:26:54.899Z,83.35
2022-11-11T06:29:22.370Z,83.48
2022-11-11T06:31:49.864Z,83.30
2022-11-11T06:34:17.421Z,84.10
2022-11-11T06:36:44.875Z,84.64
2022-11-11T06:39:12.307Z,84.45
2022-11-11T06:41:41.101Z,83.57
2022-11-11T06:44:08.543Z,84.15
2022-11-11T06:46:36.034Z,83.39
2022-11-11T06:49:03.689Z,82.89
2022-11-11T06:51:31.140Z,83.55
2022-11-11T06:53:58.578Z,83.82
2022-11-11T06:56:26.092Z,82.96
2022-11-11T06:58:54.879Z,84.02
2022-11-11T07:01:22.347Z,84.07
2022-11-11T07:03:49.816Z,83.26
2022-11-11T07:06:17.237Z,83.05
2022-11-11T07:08:44.713Z,84.96
2022-11-11T07:11:18.386Z,85.57
2022-11-11T07:13:46.341Z,85.40
2022-11-11T07:16:15.086Z,85.35
2022-11-11T07:18:42.546Z,84.47
2022-11-11T07:21:10.029Z,84.40
2022-11-11T07:23:37.474Z,85.13
2022-11-11T07:26:05.047Z,84.40
2022-11-11T07:28:32.473Z,85.31
2022-11-11T07:31:00.022Z,85.69
2022-11-11T07:33:28.822Z,85.56
2022-11-11T07:35:56.270Z,85.17
2022-11-11T07:38:24.065Z,85.84
2022-11-11T07:40:58.012Z,85.51
2022-11-11T07:43:25.539Z,86.03
2022-11-11T07:45:53.066Z,87.08
2022-11-11T07:48:20.474Z,86.42
2022-11-11T07:50:49.292Z,86.50
2022-11-11T07:53:16.750Z,86.71
2022-11-11T07:55:46.048Z,86.60
2022-11-11T07:58:13.521Z,87.07
2022-11-11T08:00:41.357Z,87.86
2022-11-11T08:03:09.209Z,87.44
2022-11-11T08:05:36.885Z,87.70
2022-11-11T08:08:07.281Z,87.89
2022-11-11T08:10:35.707Z,88.27
2022-11-11T08:13:20.899Z,88.07
2022-11-11T08:15:48.843Z,88.99
2022-11-11T08:18:16.265Z,89.92
2022-11-11T08:20:46.551Z,90.38
2022-11-11T08:24:10.558Z,89.25
2022-11-11T08:26:11.031Z,92.21
2022-11-11T08:28:38.467Z,91.17
2022-11-11T08:31:05.999Z,93.73
2022-11-11T08:33:34.983Z,92.85
2022-11-11T08:36:03.352Z,93.62
2022-11-11T08:38:32.401Z,93.23
2022-11-11T08:41:00.933Z,93.90
2022-11-11T08:43:36.822Z,94.45
2022-11-11T08:46:05.934Z,96.41
2022-11-11T08:48:33.763Z,98.43
2022-11-11T08:51:01.301Z,100.00
2022-11-11T08:53:29.190Z,97.70
2022-11-11T08:55:57.942Z,100.00
2022-11-11T08:58:25.395Z,100.00
2022-11-11T09:00:52.868Z,100.00
2022-11-11T09:03:20.352Z,100.00
2022-11-11T09:05:48.281Z,100.00
2022-11-11T09:08:15.785Z,100.00
2022-11-11T09:10:43.300Z,100.00
2022-11-11T09:13:12.180Z,100.00
2022-11-11T09:15:39.495Z,100.00
2022-11-11T09:18:06.988Z,100.00
2022-11-11T09:20:34.471Z,100.00
2022-11-11T09:23:01.899Z,100.00
2022-11-11T09:25:29.333Z,100.00
2022-11-11T09:27:57.718Z,100.00
2022-11-11T09:30:27.621Z,100.00
2022-11-11T09:32:55.481Z,100.00
2022-11-11T09:35:22.960Z,100.00
2022-11-11T09:37:57.243Z,100.00
2022-11-11T09:40:27.991Z,100.00
2022-11-11T09:43:06.442Z,100.00
2022-11-11T09:45:45.975Z,100.00
2022-11-11T09:48:35.639Z,100.00
2022-11-11T09:51:07.219Z,100.00
2022-11-11T09:53:39.741Z,100.00
2022-11-11T09:56:29.771Z,100.00
2022-11-11T09:59:03.953Z,100.00
2022-11-11T10:01:38.925Z,100.00
2022-11-11T10:04:13.435Z,100.00
2022-11-11T10:06:41.250Z,100.00
2022-11-11T10:09:18.510Z,100.00
2022-11-11T10:11:52.632Z,100.00
2022-11-11T10:14:20.328Z,100.00
2022-11-11T10:17:00.532Z,100.00
2022-11-11T10:19:31.911Z,100.00
2022-11-11T10:22:16.830Z,100.00
2022-11-11T10:24:51.181Z,100.00
2022-11-11T10:27:21.148Z,100.00
2022-11-11T10:29:50.524Z,100.00
2022-11-11T10:32:22.809Z,100.00
2022-11-11T10:34:50.288Z,100.00
2022-11-11T10:37:20.903Z,100.00
2022-11-11T10:40:01.591Z,100.00
2022-11-11T10:42:29.065Z,100.00
2022-11-11T10:45:03.833Z,100.00
2022-11-11T10:47:44.824Z,100.00
2022-11-11T10:50:21.203Z,100.00
2022-11-11T10:52:55.520Z,100.00
2022-11-11T10:55:27.218Z,100.00
2022-11-11T10:58:00.082Z,100.00
2022-11-11T11:00:28.778Z,100.00
2022-11-11T11:03:00.606Z,100.00
2022-11-11T11:05:33.427Z,100.00
2022-11-11T11:08:08.046Z,100.00
2022-11-11T11:10:41.690Z,100.00
2022-11-11T11:13:16.312Z,100.00
2022-11-11T11:15:49.115Z,100.00
2022-11-11T11:18:19.876Z,100.00
2022-11-11T11:20:57.226Z,100.00
2022-11-11T11:23:37.131Z,100.00
2022-11-11T11:26:05.158Z,100.00
2022-11-11T11:28:34.412Z,99.93
2022-11-11T11:31:03.879Z,100.00
2022-11-11T11:33:54.539Z,100.00
2022-11-11T11:36:22.312Z,100.00
2022-11-11T11:38:51.507Z,100.00
2022-11-11T11:41:36.368Z,99.10
2022-11-11T11:44:04.051Z,96.67
2022-11-11T11:46:38.388Z,100.00
2022-11-11T11:49:21.342Z,100.00
2022-11-11T11:51:58.791Z,99.09
2022-11-11T11:54:47.757Z,99.82
2022-11-11T11:57:30.488Z,100.00
2022-11-11T12:00:04.039Z,100.00
2022-11-11T12:02:51.997Z,96.67
2022-11-11T12:05:27.403Z,95.90
2022-11-11T12:08:15.383Z,96.05
2022-11-11T12:10:50.581Z,99.54
2022-11-11T12:13:31.505Z,94.18
2022-11-11T12:16:04.428Z,96.10
2022-11-11T12:19:02.499Z,93.66
2022-11-11T12:21:40.992Z,93.90
2022-11-11T12:24:32.155Z,94.87
2022-11-11T12:27:15.491Z,92.52
2022-11-11T12:29:55.140Z,95.14
2022-11-11T12:32:45.930Z,95.90
2022-11-11T12:35:32.129Z,94.60
2022-11-11T12:38:17.406Z,97.42
2022-11-11T12:40:59.859Z,97.41
2022-11-11T12:43:35.785Z,97.66
2022-11-11T12:46:12.538Z,98.68
2022-11-11T12:48:55.619Z,93.46
2022-11-11T12:51:38.226Z,94.97
2022-11-11T12:54:20.756Z,93.19
2022-11-11T12:56:56.135Z,92.71
2022-11-11T12:59:34.172Z,92.47
2022-11-11T13:02:17.272Z,95.20
2022-11-11T13:04:56.071Z,96.42
2022-11-11T13:07:53.600Z,94.83
2022-11-11T13:10:31.158Z,96.86
2022-11-11T13:13:14.300Z,94.05
2022-11-11T13:15:42.084Z,96.49
2022-11-11T13:18:16.279Z,98.27
2022-11-11T13:20:55.271Z,98.94
2022-11-11T13:23:25.603Z,94.94
2022-11-11T13:26:01.897Z,93.86
2022-11-11T13:28:33.987Z,96.32
2022-11-11T13:31:15.709Z,93.10
2022-11-11T13:33:47.692Z,92.63
2022-11-11T13:36:18.637Z,95.56
2022-11-11T13:38:49.639Z,96.07
2022-11-11T13:41:25.472Z,96.97
2022-11-11T13:43:55.780Z,96.33
2022-11-11T13:46:38.923Z,94.56
2022-11-11T13:49:09.793Z,92.72
2022-11-11T13:51:41.877Z,97.13
2022-11-11T13:54:24.988Z,95.04
2022-11-11T13:56:55.083Z,96.19
2022-11-11T13:59:26.851Z,97.41
2022-11-11T14:02:29.156Z,96.25
2022-11-11T14:05:22.855Z,98.44
2022-11-11T14:07:56.357Z,98.23
2022-11-11T14:10:50.627Z,97.33
2022-11-11T14:13:41.196Z,98.45
2022-11-11T14:16:53.599Z,98.75
2022-11-11T14:19:32.720Z,98.40
2022-11-11T14:22:01.541Z,99.84
2022-11-11T14:24:37.043Z,100.00
2022-11-11T14:27:15.560Z,98.93
2022-11-11T14:29:52.515Z,98.43
2022-11-11T14:32:35.746Z,98.31
2022-11-11T14:35:16.331Z,97.48
2022-11-11T14:38:04.266Z,99.20
2022-11-11T14:40:33.793Z,100.00
2022-11-11T14:43:22.010Z,100.00
2022-11-11T14:45:55.182Z,100.00
2022-11-11T14:48:50.599Z,99.87
2022-11-11T14:51:41.509Z,100.00
2022-11-11T14:54:21.703Z,100.00
2022-11-11T14:57:01.830Z,100.00
2022-11-11T14:59:32.583Z,100.00
2022-11-11T15:02:02.487Z,100.00
2022-11-11T15:04:37.667Z,100.00
2022-11-11T15:07:09.020Z,100.00
2022-11-11T15:09:50.955Z,100.00
2022-11-11T15:12:27.400Z,100.00
2022-11-11T15:15:03.884Z,100.00
2022-11-11T15:17:42.469Z,100.00
2022-11-11T15:20:27.618Z,100.00
2022-11-11T15:23:03.928Z,100.00
2022-11-11T15:25:46.316Z,100.00
2022-11-11T15:28:36.953Z,100.00
2022-11-11T15:31:16.257Z,100.00
2022-11-11T15:33:53.784Z,100.00
2022-11-11T15:36:34.222Z,100.00
2022-11-11T15:39:08.133Z,100.00
2022-11-11T15:41:38.964Z,100.00
2022-11-11T15:44:14.641Z,100.00
2022-11-11T15:46:44.152Z,100.00
2022-11-11T15:49:15.840Z,100.00
2022-11-11T15:51:43.550Z,100.00
2022-11-11T15:54:17.800Z,100.00
2022-11-11T15:56:45.381Z,100.00
2022-11-11T15:59:23.738Z,100.00
2022-11-11T16:01:52.339Z,100.00
2022-11-11T16:04:53.963Z,100.00
2022-11-11T16:07:19.732Z,100.00
2022-11-11T16:09:47.335Z,100.00
2022-11-11T16:12:20.525Z,100.00
2022-11-11T16:14:51.288Z,100.00
2022-11-11T16:17:20.543Z,100.00
2022-11-11T16:19:51.005Z,100.00
2022-11-11T16:22:22.514Z,100.00
2022-11-11T16:24:51.499Z,100.00
2022-11-11T16:27:21.944Z,100.00
2022-11-11T16:29:49.386Z,100.00
2022-11-11T16:32:34.244Z,100.00
2022-11-11T16:35:03.339Z,100.00
2022-11-11T16:37:30.820Z,100.00
2022-11-11T16:40:18.353Z,100.00
2022-11-11T16:42:46.032Z,100.00
2022-11-11T16:45:20.957Z,100.00
2022-11-11T16:47:49.977Z,100.00
2022-11-11T16:50:22.927Z,100.00
2022-11-11T16:52:54.061Z,100.00
2022-11-11T16:55:27.057Z,100.00
2022-11-11T16:57:55.107Z,100.00
2022-11-11T17:00:24.756Z,100.00
2022-11-11T17:03:10.184Z,100.00
2022-11-11T17:06:00.603Z,100.00
2022-11-11T17:08:35.019Z,100.00
2022-11-11T17:11:02.652Z,100.00
2022-11-11T17:13:30.244Z,99.34
2022-11-11T17:16:04.144Z,98.82
2022-11-11T17:18:33.643Z,98.55
2022-11-11T17:21:02.888Z,99.73
2022-11-11T17:23:30.377Z,99.77
2022-11-11T17:26:00.003Z,99.07
2022-11-11T17:28:28.791Z,100.00
2022-11-11T17:30:56.224Z,99.91
2022-11-11T17:33:27.197Z,99.32
2022-11-11T17:35:57.902Z,98.43
2022-11-11T17:38:26.680Z,98.65
2022-11-11T17:40:54.242Z,97.87
2022-11-11T17:43:21.771Z,98.23
2022-11-11T17:45:49.241Z,98.22
2022-11-11T17:48:16.647Z,98.64
2022-11-11T17:50:44.088Z,97.19
2022-11-11T17:53:16.401Z,96.51
2022-11-11T17:55:53.119Z,95.41
2022-11-11T17:58:20.591Z,97.91
2022-11-11T18:00:48.045Z,95.95
2022-11-11T18:03:15.516Z,97.45
2022-11-11T18:05:42.940Z,95.24
2022-11-11T18:08:10.391Z,95.01
2022-11-11T18:10:37.867Z,95.15
2022-11-11T18:13:06.652Z,95.37
2022-11-11T18:15:34.799Z,95.98
2022-11-11T18:18:02.243Z,95.14
2022-11-11T18:20:29.679Z,93.61
2022-11-11T18:22:57.400Z,94.00
2022-11-11T18:25:24.998Z,94.84
2022-11-11T18:27:54.130Z,96.55
2022-11-11T18:30:22.939Z,94.72
2022-11-11T18:32:50.393Z,94.30
2022-11-11T18:35:18.578Z,93.59
2022-11-11T18:37:46.883Z,95.29
2022-11-11T18:40:14.770Z,93.66
2022-11-11T18:42:42.251Z,94.60
2022-11-11T18:45:10.195Z,95.63
2022-11-11T18:47:38.961Z,94.11
2022-11-11T18:50:06.612Z,93.68
2022-11-11T18:52:34.044Z,94.43
2022-11-11T18:55:01.493Z,93.33
2022-11-11T18:57:28.911Z,91.29
2022-11-11T18:59:56.366Z,93.75
2022-11-11T19:02:23.821Z,93.99
2022-11-11T19:04:52.641Z,93.62
2022-11-11T19:07:20.125Z,92.44
2022-11-11T19:09:47.603Z,93.13
2022-11-11T19:12:15.063Z,92.16
2022-11-11T19:14:42.484Z,91.59
2022-11-11T19:17:10.122Z,92.50
2022-11-11T19:19:37.573Z,93.50
2022-11-11T19:22:06.324Z,91.69
2022-11-11T19:24:34.056Z,93.71
2022-11-11T19:27:01.634Z,93.63
2022-11-11T19:29:29.083Z,91.99
2022-11-11T19:31:56.548Z,92.51
2022-11-11T19:34:23.968Z,92.67
2022-11-11T19:36:51.409Z,92.52
2022-11-11T19:39:20.263Z,92.15
2022-11-11T19:41:47.746Z,91.18
2022-11-11T19:44:15.213Z,91.74
2022-11-11T19:46:43.257Z,91.24
2022-11-11T19:49:10.938Z,91.76
2022-11-11T19:51:38.398Z,92.62
2022-11-11T19:54:05.883Z,91.92
2022-11-11T19:56:35.392Z,91.64
2022-11-11T19:59:04.013Z,91.61
2022-11-11T20:01:33.893Z,91.16
2022-11-11T20:04:01.376Z,91.84
2022-11-11T20:06:30.489Z,91.35
2022-11-11T20:09:01.006Z,91.52
2022-11-11T20:11:29.345Z,91.97
2022-11-11T20:13:58.628Z,91.48
2022-11-11T20:16:26.184Z,91.10
2022-11-11T20:18:55.609Z,90.70
2022-11-11T20:21:23.293Z,90.00
2022-11-11T20:23:50.716Z,91.53
2022-11-11T20:26:18.327Z,91.03
2022-11-11T20:28:45.891Z,90.52
2022-11-11T20:31:16.877Z,90.66
2022-11-11T20:33:44.936Z,90.64
2022-11-11T20:36:14.549Z,90.75
2022-11-11T20:38:42.034Z,91.29
2022-11-11T20:41:12.208Z,90.61
2022-11-11T20:43:40.066Z,92.20
2022-11-11T20:46:09.479Z,91.10
2022-11-11T20:48:40.503Z,92.20
2022-11-11T20:51:10.656Z,91.51
2022-11-11T20:53:38.540Z,92.24
2022-11-11T20:56:07.862Z,91.56
2022-11-11T20:58:36.244Z,92.13
2022-11-11T21:01:04.033Z,95.54
2022-11-11T21:03:32.308Z,95.65
2022-11-11T21:06:05.761Z,93.91
2022-11-11T21:08:33.511Z,94.68
2022-11-11T21:11:01.360Z,95.48
2022-11-11T21:13:30.133Z,94.48
2022-11-11T21:16:03.183Z,92.97
2022-11-11T21:18:30.948Z,93.39
2022-11-11T21:20:58.398Z,93.25
2022-11-11T21:23:27.651Z,95.50
2022-11-11T21:26:01.934Z,97.35
2022-11-11T21:28:29.424Z,98.04
2022-11-11T21:30:59.282Z,96.55
2022-11-11T21:33:27.108Z,94.41
2022-11-11T21:36:01.110Z,93.75
2022-11-11T21:38:29.906Z,93.45
2022-11-11T21:41:01.778Z,93.16
2022-11-11T21:43:29.264Z,92.92
2022-11-11T21:46:00.375Z,92.76
2022-11-11T21:48:27.867Z,92.02
2022-11-11T21:51:02.123Z,92.40
2022-11-11T21:53:30.930Z,92.45
2022-11-11T21:56:02.071Z,92.62
2022-11-11T21:58:30.146Z,92.71
2022-11-11T22:01:04.875Z,92.84
2022-11-11T22:03:33.029Z,91.73
2022-11-11T22:06:05.688Z,92.18
2022-11-11T22:08:35.088Z,91.91
2022-11-11T22:11:04.373Z,91.47
2022-11-11T22:13:32.341Z,91.88
2022-11-11T22:16:01.699Z,90.77
2022-11-11T22:18:29.424Z,90.16
2022-11-11T22:21:03.541Z,91.19
2022-11-11T22:23:31.108Z,92.20
2022-11-11T22:26:03.959Z,91.99
2022-11-11T22:28:31.833Z,91.43
2022-11-11T22:31:06.779Z,91.21
2022-11-11T22:33:34.088Z,91.89
2022-11-11T22:36:03.023Z,91.21
2022-11-11T22:38:30.781Z,90.33
2022-11-11T22:41:03.624Z,90.69
2022-11-11T22:43:57.876Z,91.33
2022-11-11T22:46:24.851Z,92.00
2022-11-11T22:48:55.125Z,91.26
2022-11-11T22:51:24.146Z,91.18
2022-11-11T22:53:55.875Z,91.49
2022-11-11T22:56:25.572Z,91.43
2022-11-11T22:58:53.372Z,91.49
2022-11-11T23:01:27.953Z,90.92
2022-11-11T23:03:58.111Z,90.17
2022-11-11T23:06:28.068Z,90.48
2022-11-11T23:08:55.572Z,90.82
2022-11-11T23:11:26.317Z,89.95
2022-11-11T23:13:59.260Z,89.33
2022-11-11T23:16:26.707Z,90.54
2022-11-11T23:18:54.155Z,90.61
2022-11-11T23:21:23.655Z,89.76
2022-11-11T23:23:52.181Z,90.14
2022-11-11T23:26:21.575Z,89.79
2022-11-11T23:28:50.571Z,89.50
2022-11-11T23:31:20.842Z,89.00
2022-11-11T23:33:50.507Z,90.40
2022-11-11T23:36:20.255Z,89.55
2022-11-11T23:38:48.289Z,89.23
2022-11-11T23:41:16.142Z,89.42
2022-11-11T23:43:43.847Z,88.58
2022-11-11T23:46:12.940Z,88.69
2022-11-11T23:48:40.440Z,90.27
2022-11-11T23:51:08.259Z,88.82
2022-11-11T23:53:35.725Z,88.93
2022-11-11T23:56:03.493Z,89.34
2022-11-11T23:58:31.352Z,88.81
